sensor_id;sensor_type;location;lat;lon;timestamp;P1;durP1;ratioP1;P2;durP2;ratioP2
59310;SDS011;45078;51.654;21.250;2022-07-09T00:02:04;1.63;;;1.08;;
59310;SDS011;45078;51.654;21.250;2022-07-09T00:04:30;1.90;;;1.15;;
59310;SDS011;45078;51.654;21.250;2022-07-09T00:06:56;0.75;;;0.63;;
59310;SDS011;45078;51.654;21.250;2022-07-09T00:09:23;0.60;;;0.57;;
59310;SDS011;45078;51.654;21.250;2022-07-09T00:11:49;1.60;;;0.80;;
59310;SDS011;45078;51.654;21.250;2022-07-09T00:14:17;1.98;;;1.13;;
59310;SDS011;45078;51.654;21.250;2022-07-09T00:16:43;1.45;;;1.02;;
59310;SDS011;45078;51.654;21.250;2022-07-09T00:19:09;0.93;;;0.90;;
59310;SDS011;45078;51.654;21.250;2022-07-09T00:21:35;0.90;;;0.70;;
59310;SDS011;45078;51.654;21.250;2022-07-09T00:24:01;1.33;;;1.00;;
59310;SDS011;45078;51.654;21.250;2022-07-09T00:26:27;1.02;;;0.98;;
59310;SDS011;45078;51.654;21.250;2022-07-09T00:28:53;1.58;;;1.25;;
59310;SDS011;45078;51.654;21.250;2022-07-09T00:31:19;0.57;;;0.57;;
59310;SDS011;45078;51.654;21.250;2022-07-09T00:33:44;0.77;;;0.68;;
59310;SDS011;45078;51.654;21.250;2022-07-09T00:36:10;5.15;;;0.90;;
59310;SDS011;45078;51.654;21.250;2022-07-09T00:38:36;1.85;;;1.05;;
59310;SDS011;45078;51.654;21.250;2022-07-09T00:41:02;2.58;;;1.13;;
59310;SDS011;45078;51.654;21.250;2022-07-09T00:43:28;1.45;;;0.98;;
59310;SDS011;45078;51.654;21.250;2022-07-09T00:45:54;1.63;;;1.42;;
59310;SDS011;45078;51.654;21.250;2022-07-09T00:48:19;1.65;;;1.10;;
59310;SDS011;45078;51.654;21.250;2022-07-09T00:50:45;2.38;;;1.40;;
59310;SDS011;45078;51.654;21.250;2022-07-09T00:53:12;0.60;;;0.60;;
59310;SDS011;45078;51.654;21.250;2022-07-09T00:55:40;1.35;;;0.95;;
59310;SDS011;45078;51.654;21.250;2022-07-09T00:58:10;0.90;;;0.63;;
59310;SDS011;45078;51.654;21.250;2022-07-09T01:00:37;0.60;;;0.50;;
59310;SDS011;45078;51.654;21.250;2022-07-09T01:03:03;14.00;;;1.15;;
59310;SDS011;45078;51.654;21.250;2022-07-09T01:05:29;2.50;;;1.35;;
59310;SDS011;45078;51.654;21.250;2022-07-09T01:08:02;1.25;;;0.85;;
59310;SDS011;45078;51.654;21.250;2022-07-09T01:10:29;1.85;;;0.95;;
59310;SDS011;45078;51.654;21.250;2022-07-09T01:12:55;1.35;;;1.10;;
59310;SDS011;45078;51.654;21.250;2022-07-09T01:15:21;1.23;;;1.00;;
59310;SDS011;45078;51.654;21.250;2022-07-09T01:17:47;1.52;;;1.30;;
59310;SDS011;45078;51.654;21.250;2022-07-09T01:20:13;2.17;;;1.10;;
59310;SDS011;45078;51.654;21.250;2022-07-09T01:22:39;1.23;;;1.00;;
59310;SDS011;45078;51.654;21.250;2022-07-09T01:25:09;1.40;;;1.10;;
59310;SDS011;45078;51.654;21.250;2022-07-09T01:27:39;0.47;;;0.47;;
59310;SDS011;45078;51.654;21.250;2022-07-09T01:30:05;1.45;;;1.10;;
59310;SDS011;45078;51.654;21.250;2022-07-09T01:32:31;1.40;;;1.08;;
59310;SDS011;45078;51.654;21.250;2022-07-09T01:34:57;1.25;;;1.15;;
59310;SDS011;45078;51.654;21.250;2022-07-09T01:37:23;1.33;;;0.90;;
59310;SDS011;45078;51.654;21.250;2022-07-09T01:39:49;1.48;;;0.98;;
59310;SDS011;45078;51.654;21.250;2022-07-09T01:42:17;11.90;;;1.27;;
59310;SDS011;45078;51.654;21.250;2022-07-09T01:44:45;1.45;;;1.00;;
59310;SDS011;45078;51.654;21.250;2022-07-09T01:47:11;1.50;;;1.27;;
59310;SDS011;45078;51.654;21.250;2022-07-09T01:49:40;0.98;;;0.82;;
59310;SDS011;45078;51.654;21.250;2022-07-09T01:52:07;0.93;;;0.80;;
59310;SDS011;45078;51.654;21.250;2022-07-09T01:54:33;4.03;;;0.82;;
59310;SDS011;45078;51.654;21.250;2022-07-09T01:56:59;1.02;;;0.70;;
59310;SDS011;45078;51.654;21.250;2022-07-09T01:59:25;1.52;;;0.95;;
59310;SDS011;45078;51.654;21.250;2022-07-09T02:01:51;1.00;;;0.88;;
59310;SDS011;45078;51.654;21.250;2022-07-09T02:04:16;1.52;;;1.00;;
59310;SDS011;45078;51.654;21.250;2022-07-09T02:06:42;1.15;;;0.85;;
59310;SDS011;45078;51.654;21.250;2022-07-09T02:09:08;2.15;;;1.30;;
59310;SDS011;45078;51.654;21.250;2022-07-09T02:11:34;1.50;;;1.38;;
59310;SDS011;45078;51.654;21.250;2022-07-09T02:14:00;0.93;;;0.65;;
59310;SDS011;45078;51.654;21.250;2022-07-09T02:16:26;3.30;;;1.23;;
59310;SDS011;45078;51.654;21.250;2022-07-09T02:18:52;1.20;;;0.95;;
59310;SDS011;45078;51.654;21.250;2022-07-09T02:21:17;2.20;;;1.10;;
59310;SDS011;45078;51.654;21.250;2022-07-09T02:23:43;1.02;;;0.70;;
59310;SDS011;45078;51.654;21.250;2022-07-09T02:26:10;1.80;;;1.13;;
59310;SDS011;45078;51.654;21.250;2022-07-09T02:28:36;3.92;;;2.28;;
59310;SDS011;45078;51.654;21.250;2022-07-09T02:31:02;1.23;;;0.93;;
59310;SDS011;45078;51.654;21.250;2022-07-09T02:33:28;1.77;;;0.95;;
59310;SDS011;45078;51.654;21.250;2022-07-09T02:35:55;1.00;;;0.90;;
59310;SDS011;45078;51.654;21.250;2022-07-09T02:38:21;2.58;;;1.35;;
59310;SDS011;45078;51.654;21.250;2022-07-09T02:40:47;2.00;;;1.38;;
59310;SDS011;45078;51.654;21.250;2022-07-09T02:43:13;1.48;;;1.20;;
59310;SDS011;45078;51.654;21.250;2022-07-09T02:45:39;0.82;;;0.82;;
59310;SDS011;45078;51.654;21.250;2022-07-09T02:48:05;1.90;;;1.05;;
59310;SDS011;45078;51.654;21.250;2022-07-09T02:50:31;2.47;;;1.40;;
59310;SDS011;45078;51.654;21.250;2022-07-09T02:52:56;1.70;;;1.40;;
59310;SDS011;45078;51.654;21.250;2022-07-09T02:55:22;2.13;;;1.20;;
59310;SDS011;45078;51.654;21.250;2022-07-09T02:57:48;1.40;;;1.05;;
59310;SDS011;45078;51.654;21.250;2022-07-09T03:00:14;1.98;;;1.38;;
59310;SDS011;45078;51.654;21.250;2022-07-09T03:02:40;3.70;;;1.48;;
59310;SDS011;45078;51.654;21.250;2022-07-09T03:05:06;2.00;;;1.42;;
59310;SDS011;45078;51.654;21.250;2022-07-09T03:07:32;2.83;;;1.60;;
59310;SDS011;45078;51.654;21.250;2022-07-09T03:09:58;2.60;;;1.20;;
59310;SDS011;45078;51.654;21.250;2022-07-09T03:12:23;2.00;;;1.33;;
59310;SDS011;45078;51.654;21.250;2022-07-09T03:14:49;2.47;;;1.42;;
59310;SDS011;45078;51.654;21.250;2022-07-09T03:17:15;1.60;;;1.15;;
59310;SDS011;45078;51.654;21.250;2022-07-09T03:19:41;1.40;;;1.17;;
59310;SDS011;45078;51.654;21.250;2022-07-09T03:22:07;1.67;;;1.27;;
59310;SDS011;45078;51.654;21.250;2022-07-09T03:24:33;2.72;;;2.05;;
59310;SDS011;45078;51.654;21.250;2022-07-09T03:26:59;0.98;;;0.85;;
59310;SDS011;45078;51.654;21.250;2022-07-09T03:29:24;1.95;;;1.75;;
59310;SDS011;45078;51.654;21.250;2022-07-09T03:31:50;1.67;;;1.30;;
59310;SDS011;45078;51.654;21.250;2022-07-09T03:34:16;5.22;;;1.30;;
59310;SDS011;45078;51.654;21.250;2022-07-09T03:36:42;1.45;;;1.08;;
59310;SDS011;45078;51.654;21.250;2022-07-09T03:39:08;2.45;;;1.73;;
59310;SDS011;45078;51.654;21.250;2022-07-09T03:41:34;1.83;;;1.52;;
59310;SDS011;45078;51.654;21.250;2022-07-09T03:44:00;1.83;;;1.20;;
59310;SDS011;45078;51.654;21.250;2022-07-09T03:46:26;3.00;;;1.10;;
59310;SDS011;45078;51.654;21.250;2022-07-09T03:48:52;2.38;;;1.42;;
59310;SDS011;45078;51.654;21.250;2022-07-09T03:51:18;1.88;;;1.50;;
59310;SDS011;45078;51.654;21.250;2022-07-09T03:53:43;2.85;;;1.63;;
59310;SDS011;45078;51.654;21.250;2022-07-09T03:56:09;3.70;;;1.60;;
59310;SDS011;45078;51.654;21.250;2022-07-09T03:58:35;5.68;;;1.60;;
59310;SDS011;45078;51.654;21.250;2022-07-09T04:01:03;1.73;;;1.38;;
59310;SDS011;45078;51.654;21.250;2022-07-09T04:03:28;1.80;;;1.45;;
59310;SDS011;45078;51.654;21.250;2022-07-09T04:05:54;3.03;;;1.88;;
59310;SDS011;45078;51.654;21.250;2022-07-09T04:08:20;4.35;;;1.30;;
59310;SDS011;45078;51.654;21.250;2022-07-09T04:10:46;4.82;;;2.00;;
59310;SDS011;45078;51.654;21.250;2022-07-09T04:13:12;3.72;;;1.58;;
59310;SDS011;45078;51.654;21.250;2022-07-09T04:15:38;7.10;;;2.20;;
59310;SDS011;45078;51.654;21.250;2022-07-09T04:18:03;2.42;;;1.83;;
59310;SDS011;45078;51.654;21.250;2022-07-09T04:20:29;1.88;;;1.42;;
59310;SDS011;45078;51.654;21.250;2022-07-09T04:22:55;2.75;;;1.65;;
59310;SDS011;45078;51.654;21.250;2022-07-09T04:25:21;2.25;;;1.45;;
59310;SDS011;45078;51.654;21.250;2022-07-09T04:27:46;11.15;;;1.45;;
59310;SDS011;45078;51.654;21.250;2022-07-09T04:30:12;4.72;;;2.00;;
59310;SDS011;45078;51.654;21.250;2022-07-09T04:32:38;3.45;;;1.55;;
59310;SDS011;45078;51.654;21.250;2022-07-09T04:35:04;2.10;;;1.45;;
59310;SDS011;45078;51.654;21.250;2022-07-09T04:37:30;3.20;;;2.00;;
59310;SDS011;45078;51.654;21.250;2022-07-09T04:39:56;5.53;;;1.90;;
59310;SDS011;45078;51.654;21.250;2022-07-09T04:42:22;1.92;;;1.45;;
59310;SDS011;45078;51.654;21.250;2022-07-09T04:44:48;3.17;;;1.92;;
59310;SDS011;45078;51.654;21.250;2022-07-09T04:47:13;4.68;;;2.00;;
59310;SDS011;45078;51.654;21.250;2022-07-09T04:49:39;6.22;;;1.70;;
59310;SDS011;45078;51.654;21.250;2022-07-09T04:52:05;3.88;;;1.23;;
59310;SDS011;45078;51.654;21.250;2022-07-09T04:54:31;6.32;;;2.20;;
59310;SDS011;45078;51.654;21.250;2022-07-09T04:56:58;1.83;;;1.40;;
59310;SDS011;45078;51.654;21.250;2022-07-09T04:59:23;2.38;;;1.45;;
59310;SDS011;45078;51.654;21.250;2022-07-09T05:01:49;2.58;;;2.00;;
59310;SDS011;45078;51.654;21.250;2022-07-09T05:04:15;1.83;;;1.02;;
59310;SDS011;45078;51.654;21.250;2022-07-09T05:06:41;3.03;;;1.92;;
59310;SDS011;45078;51.654;21.250;2022-07-09T05:09:07;2.15;;;1.23;;
59310;SDS011;45078;51.654;21.250;2022-07-09T05:11:33;2.17;;;1.30;;
59310;SDS011;45078;51.654;21.250;2022-07-09T05:13:59;2.92;;;1.80;;
59310;SDS011;45078;51.654;21.250;2022-07-09T05:16:25;3.15;;;1.55;;
59310;SDS011;45078;51.654;21.250;2022-07-09T05:18:51;1.83;;;1.45;;
59310;SDS011;45078;51.654;21.250;2022-07-09T05:21:16;1.92;;;1.38;;
59310;SDS011;45078;51.654;21.250;2022-07-09T05:23:42;2.10;;;1.60;;
59310;SDS011;45078;51.654;21.250;2022-07-09T05:26:08;2.03;;;1.35;;
59310;SDS011;45078;51.654;21.250;2022-07-09T05:28:34;3.83;;;1.58;;
59310;SDS011;45078;51.654;21.250;2022-07-09T05:31:00;7.30;;;1.92;;
59310;SDS011;45078;51.654;21.250;2022-07-09T05:33:25;1.85;;;1.52;;
59310;SDS011;45078;51.654;21.250;2022-07-09T05:35:52;2.38;;;1.20;;
59310;SDS011;45078;51.654;21.250;2022-07-09T05:38:18;3.03;;;1.58;;
59310;SDS011;45078;51.654;21.250;2022-07-09T05:40:44;1.60;;;1.08;;
59310;SDS011;45078;51.654;21.250;2022-07-09T05:43:10;5.40;;;1.58;;
59310;SDS011;45078;51.654;21.250;2022-07-09T05:45:35;2.63;;;1.13;;
59310;SDS011;45078;51.654;21.250;2022-07-09T05:48:01;1.13;;;0.68;;
59310;SDS011;45078;51.654;21.250;2022-07-09T05:50:27;2.53;;;1.30;;
59310;SDS011;45078;51.654;21.250;2022-07-09T05:52:53;2.92;;;1.20;;
59310;SDS011;45078;51.654;21.250;2022-07-09T05:55:19;2.95;;;1.20;;
59310;SDS011;45078;51.654;21.250;2022-07-09T05:57:45;1.55;;;1.00;;
59310;SDS011;45078;51.654;21.250;2022-07-09T06:00:11;1.70;;;1.20;;
59310;SDS011;45078;51.654;21.250;2022-07-09T06:02:37;1.13;;;0.75;;
59310;SDS011;45078;51.654;21.250;2022-07-09T06:05:03;1.15;;;0.77;;
59310;SDS011;45078;51.654;21.250;2022-07-09T06:07:29;1.40;;;0.88;;
59310;SDS011;45078;51.654;21.250;2022-07-09T06:09:55;1.35;;;0.90;;
59310;SDS011;45078;51.654;21.250;2022-07-09T06:12:21;1.25;;;1.00;;
59310;SDS011;45078;51.654;21.250;2022-07-09T06:14:46;1.85;;;1.00;;
59310;SDS011;45078;51.654;21.250;2022-07-09T06:17:12;1.40;;;0.98;;
59310;SDS011;45078;51.654;21.250;2022-07-09T06:19:38;1.25;;;0.75;;
59310;SDS011;45078;51.654;21.250;2022-07-09T06:22:04;1.17;;;0.90;;
59310;SDS011;45078;51.654;21.250;2022-07-09T06:24:30;1.23;;;0.82;;
59310;SDS011;45078;51.654;21.250;2022-07-09T06:26:56;2.10;;;1.48;;
59310;SDS011;45078;51.654;21.250;2022-07-09T06:29:22;2.40;;;1.17;;
59310;SDS011;45078;51.654;21.250;2022-07-09T06:31:48;3.08;;;0.82;;
59310;SDS011;45078;51.654;21.250;2022-07-09T06:34:14;3.03;;;1.30;;
59310;SDS011;45078;51.654;21.250;2022-07-09T06:36:39;1.42;;;1.02;;
59310;SDS011;45078;51.654;21.250;2022-07-09T06:39:09;1.30;;;0.95;;
59310;SDS011;45078;51.654;21.250;2022-07-09T06:41:54;2.67;;;1.05;;
59310;SDS011;45078;51.654;21.250;2022-07-09T06:44:27;4.72;;;1.13;;
59310;SDS011;45078;51.654;21.250;2022-07-09T06:46:53;2.08;;;1.30;;
59310;SDS011;45078;51.654;21.250;2022-07-09T06:49:19;0.95;;;0.73;;
59310;SDS011;45078;51.654;21.250;2022-07-09T06:51:44;5.75;;;1.10;;
59310;SDS011;45078;51.654;21.250;2022-07-09T06:54:10;2.60;;;1.48;;
59310;SDS011;45078;51.654;21.250;2022-07-09T06:56:36;2.70;;;1.30;;
59310;SDS011;45078;51.654;21.250;2022-07-09T06:59:02;3.38;;;1.63;;
59310;SDS011;45078;51.654;21.250;2022-07-09T07:01:28;1.90;;;1.10;;
59310;SDS011;45078;51.654;21.250;2022-07-09T07:03:54;1.33;;;1.08;;
59310;SDS011;45078;51.654;21.250;2022-07-09T07:06:19;1.65;;;1.20;;
59310;SDS011;45078;51.654;21.250;2022-07-09T07:08:45;1.15;;;0.93;;
59310;SDS011;45078;51.654;21.250;2022-07-09T07:11:11;1.42;;;0.90;;
59310;SDS011;45078;51.654;21.250;2022-07-09T07:13:37;1.50;;;1.05;;
59310;SDS011;45078;51.654;21.250;2022-07-09T07:16:02;1.25;;;0.80;;
59310;SDS011;45078;51.654;21.250;2022-07-09T07:18:28;1.00;;;0.80;;
59310;SDS011;45078;51.654;21.250;2022-07-09T07:20:54;1.27;;;0.93;;
59310;SDS011;45078;51.654;21.250;2022-07-09T07:23:20;1.05;;;0.82;;
59310;SDS011;45078;51.654;21.250;2022-07-09T07:25:46;1.77;;;0.95;;
59310;SDS011;45078;51.654;21.250;2022-07-09T07:28:13;3.13;;;1.15;;
59310;SDS011;45078;51.654;21.250;2022-07-09T07:30:38;1.85;;;1.27;;
59310;SDS011;45078;51.654;21.250;2022-07-09T07:33:04;1.58;;;0.73;;
59310;SDS011;45078;51.654;21.250;2022-07-09T07:35:30;1.33;;;0.88;;
59310;SDS011;45078;51.654;21.250;2022-07-09T07:37:56;1.08;;;0.75;;
59310;SDS011;45078;51.654;21.250;2022-07-09T07:40:23;1.13;;;0.82;;
59310;SDS011;45078;51.654;21.250;2022-07-09T07:42:50;1.58;;;0.90;;
59310;SDS011;45078;51.654;21.250;2022-07-09T07:45:16;0.90;;;0.50;;
59310;SDS011;45078;51.654;21.250;2022-07-09T07:47:42;1.10;;;0.75;;
59310;SDS011;45078;51.654;21.250;2022-07-09T07:50:08;0.77;;;0.57;;
59310;SDS011;45078;51.654;21.250;2022-07-09T07:52:34;0.85;;;0.68;;
59310;SDS011;45078;51.654;21.250;2022-07-09T07:55:00;1.40;;;0.80;;
59310;SDS011;45078;51.654;21.250;2022-07-09T07:57:26;0.60;;;0.47;;
59310;SDS011;45078;51.654;21.250;2022-07-09T07:59:52;1.58;;;0.88;;
59310;SDS011;45078;51.654;21.250;2022-07-09T08:02:18;1.13;;;0.75;;
59310;SDS011;45078;51.654;21.250;2022-07-09T08:04:43;1.50;;;1.00;;
59310;SDS011;45078;51.654;21.250;2022-07-09T08:07:09;5.10;;;1.00;;
59310;SDS011;45078;51.654;21.250;2022-07-09T08:09:35;1.90;;;1.00;;
59310;SDS011;45078;51.654;21.250;2022-07-09T08:12:01;2.40;;;1.10;;
59310;SDS011;45078;51.654;21.250;2022-07-09T08:14:27;4.35;;;1.20;;
59310;SDS011;45078;51.654;21.250;2022-07-09T08:16:52;1.08;;;0.60;;
59310;SDS011;45078;51.654;21.250;2022-07-09T08:19:18;1.55;;;0.70;;
59310;SDS011;45078;51.654;21.250;2022-07-09T08:21:44;1.85;;;1.02;;
59310;SDS011;45078;51.654;21.250;2022-07-09T08:24:10;1.70;;;1.08;;
59310;SDS011;45078;51.654;21.250;2022-07-09T08:26:35;1.27;;;0.80;;
59310;SDS011;45078;51.654;21.250;2022-07-09T08:29:01;1.70;;;1.00;;
59310;SDS011;45078;51.654;21.250;2022-07-09T08:31:27;1.23;;;0.85;;
59310;SDS011;45078;51.654;21.250;2022-07-09T08:33:53;1.83;;;0.55;;
59310;SDS011;45078;51.654;21.250;2022-07-09T08:36:20;0.68;;;0.40;;
59310;SDS011;45078;51.654;21.250;2022-07-09T08:38:46;0.90;;;0.60;;
59310;SDS011;45078;51.654;21.250;2022-07-09T08:41:12;0.90;;;0.47;;
59310;SDS011;45078;51.654;21.250;2022-07-09T08:43:39;2.05;;;0.52;;
59310;SDS011;45078;51.654;21.250;2022-07-09T08:46:05;0.63;;;0.40;;
59310;SDS011;45078;51.654;21.250;2022-07-09T08:48:32;2.28;;;0.73;;
59310;SDS011;45078;51.654;21.250;2022-07-09T08:50:59;0.93;;;0.60;;
59310;SDS011;45078;51.654;21.250;2022-07-09T08:53:26;0.50;;;0.40;;
59310;SDS011;45078;51.654;21.250;2022-07-09T08:55:53;0.90;;;0.47;;
59310;SDS011;45078;51.654;21.250;2022-07-09T08:58:20;0.35;;;0.30;;
59310;SDS011;45078;51.654;21.250;2022-07-09T09:00:46;2.25;;;0.98;;
59310;SDS011;45078;51.654;21.250;2022-07-09T09:03:14;0.60;;;0.30;;
59310;SDS011;45078;51.654;21.250;2022-07-09T09:05:41;1.23;;;0.47;;
59310;SDS011;45078;51.654;21.250;2022-07-09T09:08:19;1.08;;;0.60;;
59310;SDS011;45078;51.654;21.250;2022-07-09T09:10:48;0.80;;;0.50;;
59310;SDS011;45078;51.654;21.250;2022-07-09T09:13:15;1.45;;;0.50;;
59310;SDS011;45078;51.654;21.250;2022-07-09T09:15:44;1.98;;;0.50;;
59310;SDS011;45078;51.654;21.250;2022-07-09T09:18:10;0.43;;;0.40;;
59310;SDS011;45078;51.654;21.250;2022-07-09T09:20:36;2.38;;;0.50;;
59310;SDS011;45078;51.654;21.250;2022-07-09T09:23:02;0.93;;;0.60;;
59310;SDS011;45078;51.654;21.250;2022-07-09T09:25:30;1.65;;;0.60;;
59310;SDS011;45078;51.654;21.250;2022-07-09T09:27:57;0.68;;;0.40;;
59310;SDS011;45078;51.654;21.250;2022-07-09T09:30:25;0.73;;;0.47;;
59310;SDS011;45078;51.654;21.250;2022-07-09T09:32:59;2.17;;;0.43;;
59310;SDS011;45078;51.654;21.250;2022-07-09T09:35:27;0.47;;;0.40;;
59310;SDS011;45078;51.654;21.250;2022-07-09T09:37:55;0.82;;;0.40;;
59310;SDS011;45078;51.654;21.250;2022-07-09T09:40:22;0.65;;;0.40;;
59310;SDS011;45078;51.654;21.250;2022-07-09T09:42:48;1.30;;;0.60;;
59310;SDS011;45078;51.654;21.250;2022-07-09T09:45:16;0.75;;;0.50;;
59310;SDS011;45078;51.654;21.250;2022-07-09T09:47:48;1.58;;;0.77;;
59310;SDS011;45078;51.654;21.250;2022-07-09T09:50:16;1.17;;;0.60;;
59310;SDS011;45078;51.654;21.250;2022-07-09T09:52:49;0.70;;;0.50;;
59310;SDS011;45078;51.654;21.250;2022-07-09T09:55:18;0.98;;;0.50;;
59310;SDS011;45078;51.654;21.250;2022-07-09T09:57:45;1.02;;;0.63;;
59310;SDS011;45078;51.654;21.250;2022-07-09T10:00:11;1.35;;;0.80;;
59310;SDS011;45078;51.654;21.250;2022-07-09T10:02:42;1.13;;;0.65;;
59310;SDS011;45078;51.654;21.250;2022-07-09T10:05:10;0.93;;;0.52;;
59310;SDS011;45078;51.654;21.250;2022-07-09T10:07:37;0.85;;;0.55;;
59310;SDS011;45078;51.654;21.250;2022-07-09T10:10:05;3.10;;;1.08;;
59310;SDS011;45078;51.654;21.250;2022-07-09T10:12:35;6.88;;;1.85;;
59310;SDS011;45078;51.654;21.250;2022-07-09T10:15:07;1.25;;;0.80;;
59310;SDS011;45078;51.654;21.250;2022-07-09T10:17:45;0.45;;;0.45;;
59310;SDS011;45078;51.654;21.250;2022-07-09T10:20:11;1.38;;;0.70;;
59310;SDS011;45078;51.654;21.250;2022-07-09T10:22:38;0.95;;;0.70;;
59310;SDS011;45078;51.654;21.250;2022-07-09T10:25:11;0.70;;;0.50;;
59310;SDS011;45078;51.654;21.250;2022-07-09T10:27:47;1.38;;;0.50;;
59310;SDS011;45078;51.654;21.250;2022-07-09T10:33:00;1.02;;;0.70;;
59310;SDS011;45078;51.654;21.250;2022-07-09T10:35:38;1.40;;;0.82;;
59310;SDS011;45078;51.654;21.250;2022-07-09T10:38:11;1.08;;;0.70;;
59310;SDS011;45078;51.654;21.250;2022-07-09T10:40:47;1.15;;;0.52;;
59310;SDS011;45078;51.654;21.250;2022-07-09T10:43:36;2.08;;;0.70;;
59310;SDS011;45078;51.654;21.250;2022-07-09T10:46:10;1.05;;;0.50;;
59310;SDS011;45078;51.654;21.250;2022-07-09T10:48:37;0.65;;;0.50;;
59310;SDS011;45078;51.654;21.250;2022-07-09T10:51:03;0.77;;;0.60;;
59310;SDS011;45078;51.654;21.250;2022-07-09T10:53:29;0.80;;;0.60;;
59310;SDS011;45078;51.654;21.250;2022-07-09T10:55:55;1.42;;;0.80;;
59310;SDS011;45078;51.654;21.250;2022-07-09T10:58:23;1.55;;;0.85;;
59310;SDS011;45078;51.654;21.250;2022-07-09T11:01:02;0.82;;;0.60;;
59310;SDS011;45078;51.654;21.250;2022-07-09T11:03:30;1.48;;;0.80;;
59310;SDS011;45078;51.654;21.250;2022-07-09T11:05:57;1.70;;;0.70;;
59310;SDS011;45078;51.654;21.250;2022-07-09T11:08:23;1.02;;;0.57;;
59310;SDS011;45078;51.654;21.250;2022-07-09T11:10:50;0.75;;;0.57;;
59310;SDS011;45078;51.654;21.250;2022-07-09T11:13:15;0.73;;;0.63;;
59310;SDS011;45078;51.654;21.250;2022-07-09T11:15:41;2.05;;;0.70;;
59310;SDS011;45078;51.654;21.250;2022-07-09T11:18:08;3.15;;;1.20;;
59310;SDS011;45078;51.654;21.250;2022-07-09T11:23:08;1.23;;;0.77;;
59310;SDS011;45078;51.654;21.250;2022-07-09T11:25:35;3.03;;;0.68;;
59310;SDS011;45078;51.654;21.250;2022-07-09T11:28:04;0.32;;;0.30;;
59310;SDS011;45078;51.654;21.250;2022-07-09T11:30:30;1.63;;;0.57;;
59310;SDS011;45078;51.654;21.250;2022-07-09T11:33:03;1.30;;;0.90;;
59310;SDS011;45078;51.654;21.250;2022-07-09T11:36:21;2.08;;;0.75;;
59310;SDS011;45078;51.654;21.250;2022-07-09T11:38:48;0.70;;;0.52;;
59310;SDS011;45078;51.654;21.250;2022-07-09T11:41:17;1.65;;;0.90;;
59310;SDS011;45078;51.654;21.250;2022-07-09T11:43:47;1.35;;;0.65;;
59310;SDS011;45078;51.654;21.250;2022-07-09T11:46:18;0.73;;;0.55;;
59310;SDS011;45078;51.654;21.250;2022-07-09T11:49:02;1.10;;;0.73;;
59310;SDS011;45078;51.654;21.250;2022-07-09T11:51:38;1.77;;;0.98;;
59310;SDS011;45078;51.654;21.250;2022-07-09T11:54:04;1.23;;;0.60;;
59310;SDS011;45078;51.654;21.250;2022-07-09T11:56:43;2.50;;;1.08;;
59310;SDS011;45078;51.654;21.250;2022-07-09T11:59:10;1.73;;;0.93;;
59310;SDS011;45078;51.654;21.250;2022-07-09T12:01:37;1.40;;;0.70;;
59310;SDS011;45078;51.654;21.250;2022-07-09T12:04:06;1.38;;;0.80;;
59310;SDS011;45078;51.654;21.250;2022-07-09T12:06:51;3.90;;;1.23;;
59310;SDS011;45078;51.654;21.250;2022-07-09T12:09:32;4.45;;;1.50;;
59310;SDS011;45078;51.654;21.250;2022-07-09T12:11:58;8.10;;;2.63;;
59310;SDS011;45078;51.654;21.250;2022-07-09T12:14:25;1.05;;;0.68;;
59310;SDS011;45078;51.654;21.250;2022-07-09T12:16:51;1.40;;;0.85;;
59310;SDS011;45078;51.654;21.250;2022-07-09T12:19:17;3.10;;;0.90;;
59310;SDS011;45078;51.654;21.250;2022-07-09T12:21:43;1.25;;;0.77;;
59310;SDS011;45078;51.654;21.250;2022-07-09T12:24:08;3.28;;;0.82;;
59310;SDS011;45078;51.654;21.250;2022-07-09T12:26:34;1.13;;;0.73;;
59310;SDS011;45078;51.654;21.250;2022-07-09T12:29:00;1.23;;;0.70;;
59310;SDS011;45078;51.654;21.250;2022-07-09T12:31:26;2.10;;;1.13;;
59310;SDS011;45078;51.654;21.250;2022-07-09T12:33:52;3.13;;;0.70;;
59310;SDS011;45078;51.654;21.250;2022-07-09T12:36:18;1.67;;;1.00;;
59310;SDS011;45078;51.654;21.250;2022-07-09T12:38:44;3.03;;;0.95;;
59310;SDS011;45078;51.654;21.250;2022-07-09T12:41:10;1.52;;;0.80;;
59310;SDS011;45078;51.654;21.250;2022-07-09T12:43:35;1.42;;;0.65;;
59310;SDS011;45078;51.654;21.250;2022-07-09T12:46:01;2.53;;;0.80;;
59310;SDS011;45078;51.654;21.250;2022-07-09T12:48:27;1.17;;;0.60;;
59310;SDS011;45078;51.654;21.250;2022-07-09T12:50:53;2.13;;;1.00;;
59310;SDS011;45078;51.654;21.250;2022-07-09T12:53:19;2.20;;;0.65;;
59310;SDS011;45078;51.654;21.250;2022-07-09T12:55:45;1.50;;;0.90;;
59310;SDS011;45078;51.654;21.250;2022-07-09T12:58:11;1.15;;;0.80;;
59310;SDS011;45078;51.654;21.250;2022-07-09T13:00:37;0.88;;;0.60;;
59310;SDS011;45078;51.654;21.250;2022-07-09T13:03:03;1.20;;;0.60;;
59310;SDS011;45078;51.654;21.250;2022-07-09T13:05:29;4.60;;;0.60;;
59310;SDS011;45078;51.654;21.250;2022-07-09T13:07:55;2.30;;;0.80;;
59310;SDS011;45078;51.654;21.250;2022-07-09T13:10:21;1.05;;;0.63;;
59310;SDS011;45078;51.654;21.250;2022-07-09T13:12:48;1.52;;;0.60;;
59310;SDS011;45078;51.654;21.250;2022-07-09T13:15:14;1.10;;;0.82;;
59310;SDS011;45078;51.654;21.250;2022-07-09T13:17:46;1.45;;;0.98;;
59310;SDS011;45078;51.654;21.250;2022-07-09T13:20:12;1.85;;;0.90;;
59310;SDS011;45078;51.654;21.250;2022-07-09T13:22:38;1.52;;;0.60;;
59310;SDS011;45078;51.654;21.250;2022-07-09T13:25:04;1.50;;;0.68;;
59310;SDS011;45078;51.654;21.250;2022-07-09T13:27:30;2.08;;;0.50;;
59310;SDS011;45078;51.654;21.250;2022-07-09T13:29:56;2.53;;;0.70;;
59310;SDS011;45078;51.654;21.250;2022-07-09T13:32:22;1.55;;;0.80;;
59310;SDS011;45078;51.654;21.250;2022-07-09T13:34:51;6.18;;;0.70;;
59310;SDS011;45078;51.654;21.250;2022-07-09T13:37:17;1.73;;;0.80;;
59310;SDS011;45078;51.654;21.250;2022-07-09T13:39:44;1.60;;;0.80;;
59310;SDS011;45078;51.654;21.250;2022-07-09T13:42:10;2.15;;;0.75;;
59310;SDS011;45078;51.654;21.250;2022-07-09T13:44:36;0.70;;;0.50;;
59310;SDS011;45078;51.654;21.250;2022-07-09T13:47:02;2.03;;;0.90;;
59310;SDS011;45078;51.654;21.250;2022-07-09T13:49:28;0.82;;;0.60;;
59310;SDS011;45078;51.654;21.250;2022-07-09T13:51:53;1.73;;;1.00;;
59310;SDS011;45078;51.654;21.250;2022-07-09T13:54:20;1.85;;;0.70;;
59310;SDS011;45078;51.654;21.250;2022-07-09T13:56:46;1.45;;;0.88;;
59310;SDS011;45078;51.654;21.250;2022-07-09T13:59:12;2.90;;;0.70;;
59310;SDS011;45078;51.654;21.250;2022-07-09T14:01:37;1.10;;;0.70;;
59310;SDS011;45078;51.654;21.250;2022-07-09T14:04:03;1.30;;;0.73;;
59310;SDS011;45078;51.654;21.250;2022-07-09T14:06:29;1.35;;;0.80;;
59310;SDS011;45078;51.654;21.250;2022-07-09T14:08:55;1.05;;;0.70;;
59310;SDS011;45078;51.654;21.250;2022-07-09T14:11:21;1.80;;;0.95;;
59310;SDS011;45078;51.654;21.250;2022-07-09T14:13:47;1.55;;;0.60;;
59310;SDS011;45078;51.654;21.250;2022-07-09T14:16:14;1.80;;;0.57;;
59310;SDS011;45078;51.654;21.250;2022-07-09T14:18:40;5.20;;;0.90;;
59310;SDS011;45078;51.654;21.250;2022-07-09T14:21:08;0.82;;;0.55;;
59310;SDS011;45078;51.654;21.250;2022-07-09T14:23:34;2.67;;;1.08;;
59310;SDS011;45078;51.654;21.250;2022-07-09T14:26:00;1.55;;;0.90;;
59310;SDS011;45078;51.654;21.250;2022-07-09T14:28:26;1.13;;;0.60;;
59310;SDS011;45078;51.654;21.250;2022-07-09T14:30:52;1.50;;;0.82;;
59310;SDS011;45078;51.654;21.250;2022-07-09T14:33:18;5.18;;;0.88;;
59310;SDS011;45078;51.654;21.250;2022-07-09T14:35:45;1.92;;;0.93;;
59310;SDS011;45078;51.654;21.250;2022-07-09T14:38:11;1.45;;;0.90;;